sensor_id;sensor_type;location;lat;lon;timestamp;P1;durP1;ratioP1;P2;durP2;ratioP2
72720;SDS011;60835;50.974;10.322;2022-12-07T00:01:19;10.20;;;5.32;;
72720;SDS011;60835;50.974;10.322;2022-12-07T00:03:48;12.60;;;6.55;;
72720;SDS011;60835;50.974;10.322;2022-12-07T00:06:17;10.48;;;5.75;;
72720;SDS011;60835;50.974;10.322;2022-12-07T00:08:44;9.52;;;5.22;;
72720;SDS011;60835;50.974;10.322;2022-12-07T00:11:15;8.73;;;4.82;;
72720;SDS011;60835;50.974;10.322;2022-12-07T00:13:46;11.75;;;5.95;;
72720;SDS011;60835;50.974;10.322;2022-12-07T00:16:17;10.32;;;5.88;;
72720;SDS011;60835;50.974;10.322;2022-12-07T00:18:45;9.55;;;5.28;;
72720;SDS011;60835;50.974;10.322;2022-12-07T00:21:13;9.70;;;5.97;;
72720;SDS011;60835;50.974;10.322;2022-12-07T00:23:42;12.48;;;6.10;;
72720;SDS011;60835;50.974;10.322;2022-12-07T00:26:11;12.70;;;6.13;;
72720;SDS011;60835;50.974;10.322;2022-12-07T00:28:44;11.68;;;6.53;;
72720;SDS011;60835;50.974;10.322;2022-12-07T00:31:13;13.40;;;6.13;;
72720;SDS011;60835;50.974;10.322;2022-12-07T00:33:40;13.55;;;6.30;;
72720;SDS011;60835;50.974;10.322;2022-12-07T00:36:09;11.75;;;5.93;;
72720;SDS011;60835;50.974;10.322;2022-12-07T00:38:37;12.10;;;6.00;;
72720;SDS011;60835;50.974;10.322;2022-12-07T00:41:06;14.07;;;6.53;;
72720;SDS011;60835;50.974;10.322;2022-12-07T00:43:35;11.73;;;6.32;;
72720;SDS011;60835;50.974;10.322;2022-12-07T00:46:02;15.52;;;7.78;;
72720;SDS011;60835;50.974;10.322;2022-12-07T00:48:29;12.05;;;6.72;;
72720;SDS011;60835;50.974;10.322;2022-12-07T00:50:58;12.40;;;6.75;;
72720;SDS011;60835;50.974;10.322;2022-12-07T00:53:27;12.23;;;6.38;;
72720;SDS011;60835;50.974;10.322;2022-12-07T00:55:55;12.20;;;6.68;;
72720;SDS011;60835;50.974;10.322;2022-12-07T00:58:22;11.50;;;6.65;;
72720;SDS011;60835;50.974;10.322;2022-12-07T01:00:49;11.65;;;6.78;;
72720;SDS011;60835;50.974;10.322;2022-12-07T01:03:16;13.07;;;6.93;;
72720;SDS011;60835;50.974;10.322;2022-12-07T01:06:18;13.55;;;6.80;;
72720;SDS011;60835;50.974;10.322;2022-12-07T01:08:40;11.23;;;6.15;;
72720;SDS011;60835;50.974;10.322;2022-12-07T01:11:07;12.05;;;6.30;;
72720;SDS011;60835;50.974;10.322;2022-12-07T01:13:36;12.80;;;7.13;;
72720;SDS011;60835;50.974;10.322;2022-12-07T01:16:03;13.63;;;6.85;;
72720;SDS011;60835;50.974;10.322;2022-12-07T01:18:32;11.88;;;6.30;;
72720;SDS011;60835;50.974;10.322;2022-12-07T01:21:04;12.52;;;7.03;;
72720;SDS011;60835;50.974;10.322;2022-12-07T01:23:33;15.88;;;6.38;;
72720;SDS011;60835;50.974;10.322;2022-12-07T01:26:02;12.27;;;6.57;;
72720;SDS011;60835;50.974;10.322;2022-12-07T01:28:31;12.13;;;6.38;;
72720;SDS011;60835;50.974;10.322;2022-12-07T01:30:59;12.23;;;6.18;;
72720;SDS011;60835;50.974;10.322;2022-12-07T01:33:27;14.93;;;7.50;;
72720;SDS011;60835;50.974;10.322;2022-12-07T01:35:59;11.40;;;6.65;;
72720;SDS011;60835;50.974;10.322;2022-12-07T01:38:27;13.38;;;6.97;;
72720;SDS011;60835;50.974;10.322;2022-12-07T01:40:54;12.38;;;7.00;;
72720;SDS011;60835;50.974;10.322;2022-12-07T01:43:22;13.30;;;7.30;;
72720;SDS011;60835;50.974;10.322;2022-12-07T01:45:50;11.95;;;6.68;;
72720;SDS011;60835;50.974;10.322;2022-12-07T01:48:18;15.75;;;7.70;;
72720;SDS011;60835;50.974;10.322;2022-12-07T01:50:50;12.10;;;6.70;;
72720;SDS011;60835;50.974;10.322;2022-12-07T01:53:21;15.50;;;7.32;;
72720;SDS011;60835;50.974;10.322;2022-12-07T01:55:52;15.57;;;7.45;;
72720;SDS011;60835;50.974;10.322;2022-12-07T01:58:20;12.90;;;7.00;;
72720;SDS011;60835;50.974;10.322;2022-12-07T02:00:47;10.93;;;6.43;;
72720;SDS011;60835;50.974;10.322;2022-12-07T02:03:16;16.27;;;8.00;;
72720;SDS011;60835;50.974;10.322;2022-12-07T02:05:48;15.70;;;8.30;;
72720;SDS011;60835;50.974;10.322;2022-12-07T02:08:16;13.77;;;7.88;;
72720;SDS011;60835;50.974;10.322;2022-12-07T02:10:43;13.98;;;7.60;;
72720;SDS011;60835;50.974;10.322;2022-12-07T02:13:15;13.23;;;7.03;;
72720;SDS011;60835;50.974;10.322;2022-12-07T02:21:28;14.05;;;8.15;;
72720;SDS011;60835;50.974;10.322;2022-12-07T02:24:14;14.88;;;7.95;;
72720;SDS011;60835;50.974;10.322;2022-12-07T02:35:03;16.17;;;7.53;;
72720;SDS011;60835;50.974;10.322;2022-12-07T02:40:14;17.80;;;8.18;;
72720;SDS011;60835;50.974;10.322;2022-12-07T02:42:55;16.02;;;8.65;;
72720;SDS011;60835;50.974;10.322;2022-12-07T02:45:37;15.40;;;8.60;;
72720;SDS011;60835;50.974;10.322;2022-12-07T02:48:08;17.15;;;9.40;;
72720;SDS011;60835;50.974;10.322;2022-12-07T02:50:38;16.88;;;8.65;;
72720;SDS011;60835;50.974;10.322;2022-12-07T02:53:04;19.00;;;9.18;;
72720;SDS011;60835;50.974;10.322;2022-12-07T02:55:34;17.65;;;8.88;;
72720;SDS011;60835;50.974;10.322;2022-12-07T02:58:11;15.85;;;9.23;;
72720;SDS011;60835;50.974;10.322;2022-12-07T03:01:03;15.27;;;8.93;;
72720;SDS011;60835;50.974;10.322;2022-12-07T03:03:42;18.58;;;9.75;;
72720;SDS011;60835;50.974;10.322;2022-12-07T03:06:20;18.13;;;9.27;;
72720;SDS011;60835;50.974;10.322;2022-12-07T03:08:57;15.77;;;8.88;;
72720;SDS011;60835;50.974;10.322;2022-12-07T03:11:40;15.68;;;8.50;;
72720;SDS011;60835;50.974;10.322;2022-12-07T03:14:14;18.98;;;10.02;;
72720;SDS011;60835;50.974;10.322;2022-12-07T03:16:53;18.63;;;10.40;;
72720;SDS011;60835;50.974;10.322;2022-12-07T03:22:01;23.30;;;10.88;;
72720;SDS011;60835;50.974;10.322;2022-12-07T03:24:33;17.33;;;9.88;;
72720;SDS011;60835;50.974;10.322;2022-12-07T03:27:09;19.33;;;10.35;;
72720;SDS011;60835;50.974;10.322;2022-12-07T03:29:40;20.23;;;10.10;;
72720;SDS011;60835;50.974;10.322;2022-12-07T03:37:30;20.00;;;10.32;;
72720;SDS011;60835;50.974;10.322;2022-12-07T03:40:08;18.58;;;10.77;;
72720;SDS011;60835;50.974;10.322;2022-12-07T03:42:36;21.55;;;10.80;;
72720;SDS011;60835;50.974;10.322;2022-12-07T03:45:03;19.85;;;10.73;;
72720;SDS011;60835;50.974;10.322;2022-12-07T03:47:40;18.60;;;10.52;;
72720;SDS011;60835;50.974;10.322;2022-12-07T03:50:25;17.65;;;10.20;;
72720;SDS011;60835;50.974;10.322;2022-12-07T03:53:02;18.45;;;10.23;;
72720;SDS011;60835;50.974;10.322;2022-12-07T03:55:35;18.80;;;9.77;;
72720;SDS011;60835;50.974;10.322;2022-12-07T03:58:06;19.35;;;10.55;;
72720;SDS011;60835;50.974;10.322;2022-12-07T04:00:37;27.05;;;10.82;;
72720;SDS011;60835;50.974;10.322;2022-12-07T04:03:03;19.05;;;10.45;;
72720;SDS011;60835;50.974;10.322;2022-12-07T04:05:31;18.85;;;9.65;;
72720;SDS011;60835;50.974;10.322;2022-12-07T04:07:57;18.77;;;10.32;;
72720;SDS011;60835;50.974;10.322;2022-12-07T04:10:24;17.77;;;10.02;;
72720;SDS011;60835;50.974;10.322;2022-12-07T04:12:50;16.85;;;9.23;;
72720;SDS011;60835;50.974;10.322;2022-12-07T04:15:17;16.50;;;9.00;;
72720;SDS011;60835;50.974;10.322;2022-12-07T04:17:43;19.77;;;10.50;;
72720;SDS011;60835;50.974;10.322;2022-12-07T04:20:10;14.65;;;8.60;;
72720;SDS011;60835;50.974;10.322;2022-12-07T04:22:37;15.90;;;9.05;;
72720;SDS011;60835;50.974;10.322;2022-12-07T04:25:04;17.45;;;9.27;;
72720;SDS011;60835;50.974;10.322;2022-12-07T04:27:31;13.40;;;7.88;;
72720;SDS011;60835;50.974;10.322;2022-12-07T04:29:57;14.93;;;8.50;;
72720;SDS011;60835;50.974;10.322;2022-12-07T04:32:24;16.05;;;9.40;;
72720;SDS011;60835;50.974;10.322;2022-12-07T04:34:50;14.57;;;8.15;;
72720;SDS011;60835;50.974;10.322;2022-12-07T04:37:21;16.83;;;8.93;;
72720;SDS011;60835;50.974;10.322;2022-12-07T04:39:48;15.82;;;9.35;;
72720;SDS011;60835;50.974;10.322;2022-12-07T04:42:14;15.85;;;8.82;;
72720;SDS011;60835;50.974;10.322;2022-12-07T04:44:41;19.98;;;9.75;;
72720;SDS011;60835;50.974;10.322;2022-12-07T04:47:07;15.73;;;8.73;;
72720;SDS011;60835;50.974;10.322;2022-12-07T04:49:34;16.83;;;8.38;;
72720;SDS011;60835;50.974;10.322;2022-12-07T04:52:00;15.18;;;8.70;;
72720;SDS011;60835;50.974;10.322;2022-12-07T04:54:27;18.02;;;8.98;;
72720;SDS011;60835;50.974;10.322;2022-12-07T04:56:54;18.75;;;9.73;;
72720;SDS011;60835;50.974;10.322;2022-12-07T04:59:20;12.75;;;8.25;;
72720;SDS011;60835;50.974;10.322;2022-12-07T05:01:46;16.55;;;9.18;;
72720;SDS011;60835;50.974;10.322;2022-12-07T05:04:13;13.98;;;8.18;;
72720;SDS011;60835;50.974;10.322;2022-12-07T05:06:40;16.27;;;8.90;;
72720;SDS011;60835;50.974;10.322;2022-12-07T05:09:06;17.33;;;8.75;;
72720;SDS011;60835;50.974;10.322;2022-12-07T05:11:33;16.23;;;8.70;;
72720;SDS011;60835;50.974;10.322;2022-12-07T05:16:34;15.55;;;8.43;;
72720;SDS011;60835;50.974;10.322;2022-12-07T05:19:01;15.25;;;8.60;;
72720;SDS011;60835;50.974;10.322;2022-12-07T05:21:28;15.85;;;8.23;;
72720;SDS011;60835;50.974;10.322;2022-12-07T05:23:54;16.13;;;8.68;;
72720;SDS011;60835;50.974;10.322;2022-12-07T05:26:21;18.40;;;8.90;;
72720;SDS011;60835;50.974;10.322;2022-12-07T05:28:54;18.80;;;10.68;;
72720;SDS011;60835;50.974;10.322;2022-12-07T05:31:23;19.45;;;10.60;;
72720;SDS011;60835;50.974;10.322;2022-12-07T05:33:51;20.20;;;10.65;;
72720;SDS011;60835;50.974;10.322;2022-12-07T05:36:18;18.10;;;10.15;;
72720;SDS011;60835;50.974;10.322;2022-12-07T05:38:45;18.00;;;9.30;;
72720;SDS011;60835;50.974;10.322;2022-12-07T05:41:13;18.25;;;9.95;;
72720;SDS011;60835;50.974;10.322;2022-12-07T05:44:00;18.23;;;10.02;;
72720;SDS011;60835;50.974;10.322;2022-12-07T05:46:26;14.25;;;8.48;;
72720;SDS011;60835;50.974;10.322;2022-12-07T05:48:53;15.45;;;9.48;;
72720;SDS011;60835;50.974;10.322;2022-12-07T05:51:19;16.20;;;9.77;;
72720;SDS011;60835;50.974;10.322;2022-12-07T05:53:46;15.90;;;9.20;;
72720;SDS011;60835;50.974;10.322;2022-12-07T05:56:12;15.35;;;8.95;;
72720;SDS011;60835;50.974;10.322;2022-12-07T05:58:39;16.45;;;9.32;;
72720;SDS011;60835;50.974;10.322;2022-12-07T06:01:24;15.88;;;9.25;;
72720;SDS011;60835;50.974;10.322;2022-12-07T06:03:51;16.02;;;9.48;;
72720;SDS011;60835;50.974;10.322;2022-12-07T06:06:17;20.67;;;9.93;;
72720;SDS011;60835;50.974;10.322;2022-12-07T06:08:44;15.35;;;8.90;;
72720;SDS011;60835;50.974;10.322;2022-12-07T06:11:10;17.40;;;9.68;;
72720;SDS011;60835;50.974;10.322;2022-12-07T06:13:56;15.15;;;8.20;;
72720;SDS011;60835;50.974;10.322;2022-12-07T06:16:22;14.70;;;8.65;;
72720;SDS011;60835;50.974;10.322;2022-12-07T06:18:49;14.95;;;8.68;;
72720;SDS011;60835;50.974;10.322;2022-12-07T06:21:15;18.67;;;9.00;;
72720;SDS011;60835;50.974;10.322;2022-12-07T06:23:41;14.48;;;8.63;;
72720;SDS011;60835;50.974;10.322;2022-12-07T06:26:08;13.82;;;8.07;;
72720;SDS011;60835;50.974;10.322;2022-12-07T06:28:34;16.13;;;8.55;;
72720;SDS011;60835;50.974;10.322;2022-12-07T06:31:01;15.13;;;9.05;;
72720;SDS011;60835;50.974;10.322;2022-12-07T06:33:28;14.82;;;8.00;;
72720;SDS011;60835;50.974;10.322;2022-12-07T06:35:55;14.95;;;8.38;;
72720;SDS011;60835;50.974;10.322;2022-12-07T06:38:22;12.85;;;8.23;;
72720;SDS011;60835;50.974;10.322;2022-12-07T06:40:48;14.95;;;8.50;;
72720;SDS011;60835;50.974;10.322;2022-12-07T06:43:15;13.80;;;8.20;;
72720;SDS011;60835;50.974;10.322;2022-12-07T06:45:42;14.88;;;8.50;;
72720;SDS011;60835;50.974;10.322;2022-12-07T06:48:09;14.95;;;7.95;;
72720;SDS011;60835;50.974;10.322;2022-12-07T06:50:35;15.45;;;8.55;;
72720;SDS011;60835;50.974;10.322;2022-12-07T06:53:02;14.48;;;8.10;;
72720;SDS011;60835;50.974;10.322;2022-12-07T06:55:28;12.85;;;7.63;;
72720;SDS011;60835;50.974;10.322;2022-12-07T06:57:55;14.73;;;7.32;;
72720;SDS011;60835;50.974;10.322;2022-12-07T07:00:21;12.10;;;7.45;;
72720;SDS011;60835;50.974;10.322;2022-12-07T07:02:48;12.10;;;7.60;;
72720;SDS011;60835;50.974;10.322;2022-12-07T07:05:15;13.10;;;7.47;;
72720;SDS011;60835;50.974;10.322;2022-12-07T07:07:42;13.02;;;7.22;;
72720;SDS011;60835;50.974;10.322;2022-12-07T07:10:29;12.25;;;7.40;;
72720;SDS011;60835;50.974;10.322;2022-12-07T07:12:55;13.82;;;7.80;;
72720;SDS011;60835;50.974;10.322;2022-12-07T07:15:23;17.20;;;7.53;;
72720;SDS011;60835;50.974;10.322;2022-12-07T07:17:49;15.27;;;9.18;;
72720;SDS011;60835;50.974;10.322;2022-12-07T07:20:16;13.15;;;7.32;;
72720;SDS011;60835;50.974;10.322;2022-12-07T07:22:42;12.95;;;7.07;;
72720;SDS011;60835;50.974;10.322;2022-12-07T07:25:09;13.48;;;7.50;;
72720;SDS011;60835;50.974;10.322;2022-12-07T07:27:36;12.68;;;7.20;;
72720;SDS011;60835;50.974;10.322;2022-12-07T07:30:03;13.38;;;7.07;;
72720;SDS011;60835;50.974;10.322;2022-12-07T07:32:30;13.45;;;6.90;;
72720;SDS011;60835;50.974;10.322;2022-12-07T07:34:57;13.00;;;7.63;;
72720;SDS011;60835;50.974;10.322;2022-12-07T07:37:23;15.70;;;8.00;;
72720;SDS011;60835;50.974;10.322;2022-12-07T07:39:50;12.77;;;6.55;;
72720;SDS011;60835;50.974;10.322;2022-12-07T07:42:16;11.77;;;6.60;;
72720;SDS011;60835;50.974;10.322;2022-12-07T07:44:42;11.95;;;6.75;;
72720;SDS011;60835;50.974;10.322;2022-12-07T07:47:09;12.77;;;6.80;;
72720;SDS011;60835;50.974;10.322;2022-12-07T07:49:35;14.90;;;7.50;;
72720;SDS011;60835;50.974;10.322;2022-12-07T07:52:04;12.05;;;6.28;;
72720;SDS011;60835;50.974;10.322;2022-12-07T07:54:31;11.35;;;6.53;;
72720;SDS011;60835;50.974;10.322;2022-12-07T07:56:58;11.60;;;7.20;;
72720;SDS011;60835;50.974;10.322;2022-12-07T07:59:24;10.80;;;6.45;;
72720;SDS011;60835;50.974;10.322;2022-12-07T08:01:51;16.08;;;7.47;;
72720;SDS011;60835;50.974;10.322;2022-12-07T08:04:18;10.63;;;5.88;;
72720;SDS011;60835;50.974;10.322;2022-12-07T08:06:44;11.32;;;5.97;;
72720;SDS011;60835;50.974;10.322;2022-12-07T08:09:12;12.48;;;6.35;;
72720;SDS011;60835;50.974;10.322;2022-12-07T08:11:38;12.45;;;6.25;;
72720;SDS011;60835;50.974;10.322;2022-12-07T08:14:05;42.33;;;13.18;;
72720;SDS011;60835;50.974;10.322;2022-12-07T08:16:31;13.85;;;6.85;;
72720;SDS011;60835;50.974;10.322;2022-12-07T08:18:58;13.35;;;6.22;;
72720;SDS011;60835;50.974;10.322;2022-12-07T08:21:24;16.75;;;7.47;;
72720;SDS011;60835;50.974;10.322;2022-12-07T08:23:51;38.70;;;11.95;;
72720;SDS011;60835;50.974;10.322;2022-12-07T08:26:17;14.82;;;7.25;;
72720;SDS011;60835;50.974;10.322;2022-12-07T08:28:44;72.00;;;17.48;;
72720;SDS011;60835;50.974;10.322;2022-12-07T08:31:12;32.47;;;10.55;;
72720;SDS011;60835;50.974;10.322;2022-12-07T08:33:41;36.40;;;10.77;;
72720;SDS011;60835;50.974;10.322;2022-12-07T08:36:09;21.55;;;8.50;;
72720;SDS011;60835;50.974;10.322;2022-12-07T08:38:37;15.70;;;7.07;;
72720;SDS011;60835;50.974;10.322;2022-12-07T08:41:05;8.63;;;5.63;;
72720;SDS011;60835;50.974;10.322;2022-12-07T08:43:33;56.95;;;15.45;;
72720;SDS011;60835;50.974;10.322;2022-12-07T08:48:33;15.75;;;6.90;;
72720;SDS011;60835;50.974;10.322;2022-12-07T08:51:03;22.30;;;7.38;;
72720;SDS011;60835;50.974;10.322;2022-12-07T08:53:30;9.95;;;5.30;;
72720;SDS011;60835;50.974;10.322;2022-12-07T08:55:59;9.25;;;5.18;;
72720;SDS011;60835;50.974;10.322;2022-12-07T08:58:26;11.77;;;5.78;;
72720;SDS011;60835;50.974;10.322;2022-12-07T09:00:53;11.00;;;6.30;;
72720;SDS011;60835;50.974;10.322;2022-12-07T09:03:20;8.95;;;4.72;;
72720;SDS011;60835;50.974;10.322;2022-12-07T09:05:47;9.35;;;5.13;;
72720;SDS011;60835;50.974;10.322;2022-12-07T09:08:13;12.65;;;5.05;;
72720;SDS011;60835;50.974;10.322;2022-12-07T09:10:40;8.30;;;5.00;;
72720;SDS011;60835;50.974;10.322;2022-12-07T09:13:07;13.95;;;5.30;;
72720;SDS011;60835;50.974;10.322;2022-12-07T09:15:33;10.23;;;5.35;;
72720;SDS011;60835;50.974;10.322;2022-12-07T09:18:00;13.57;;;5.13;;
72720;SDS011;60835;50.974;10.322;2022-12-07T09:20:27;9.63;;;4.75;;
72720;SDS011;60835;50.974;10.322;2022-12-07T09:22:53;10.80;;;5.22;;
72720;SDS011;60835;50.974;10.322;2022-12-07T09:25:20;11.38;;;5.35;;
72720;SDS011;60835;50.974;10.322;2022-12-07T09:27:47;10.25;;;4.90;;
72720;SDS011;60835;50.974;10.322;2022-12-07T09:30:14;9.18;;;5.03;;
72720;SDS011;60835;50.974;10.322;2022-12-07T09:32:40;8.20;;;4.63;;
72720;SDS011;60835;50.974;10.322;2022-12-07T09:35:07;8.90;;;4.47;;
72720;SDS011;60835;50.974;10.322;2022-12-07T09:37:33;11.07;;;5.00;;
72720;SDS011;60835;50.974;10.322;2022-12-07T09:40:02;6.40;;;4.15;;
72720;SDS011;60835;50.974;10.322;2022-12-07T09:42:32;10.20;;;4.50;;
72720;SDS011;60835;50.974;10.322;2022-12-07T09:45:02;8.57;;;4.47;;
72720;SDS011;60835;50.974;10.322;2022-12-07T09:47:31;9.32;;;4.20;;
72720;SDS011;60835;50.974;10.322;2022-12-07T09:50:03;11.68;;;4.50;;
72720;SDS011;60835;50.974;10.322;2022-12-07T09:52:32;8.45;;;4.60;;
72720;SDS011;60835;50.974;10.322;2022-12-07T09:55:08;7.43;;;4.28;;
72720;SDS011;60835;50.974;10.322;2022-12-07T09:57:39;11.13;;;4.15;;
72720;SDS011;60835;50.974;10.322;2022-12-07T10:00:10;10.77;;;4.80;;
72720;SDS011;60835;50.974;10.322;2022-12-07T10:02:58;10.15;;;4.82;;
72720;SDS011;60835;50.974;10.322;2022-12-07T10:05:30;6.97;;;4.32;;
72720;SDS011;60835;50.974;10.322;2022-12-07T10:08:01;7.80;;;3.95;;
72720;SDS011;60835;50.974;10.322;2022-12-07T10:10:32;8.85;;;4.30;;
72720;SDS011;60835;50.974;10.322;2022-12-07T10:13:08;8.10;;;5.28;;
72720;SDS011;60835;50.974;10.322;2022-12-07T10:18:32;8.10;;;4.03;;
72720;SDS011;60835;50.974;10.322;2022-12-07T10:21:13;7.03;;;3.83;;
72720;SDS011;60835;50.974;10.322;2022-12-07T10:24:28;7.40;;;4.10;;
72720;SDS011;60835;50.974;10.322;2022-12-07T10:26:38;7.43;;;3.10;;
72720;SDS011;60835;50.974;10.322;2022-12-07T10:29:16;4.82;;;3.05;;
72720;SDS011;60835;50.974;10.322;2022-12-07T10:31:49;7.18;;;3.35;;
72720;SDS011;60835;50.974;10.322;2022-12-07T10:34:22;7.30;;;3.35;;
72720;SDS011;60835;50.974;10.322;2022-12-07T10:39:47;6.05;;;3.33;;
72720;SDS011;60835;50.974;10.322;2022-12-07T10:42:19;10.57;;;5.25;;
72720;SDS011;60835;50.974;10.322;2022-12-07T10:45:38;6.55;;;2.85;;
72720;SDS011;60835;50.974;10.322;2022-12-07T10:55:56;7.80;;;2.80;;
72720;SDS011;60835;50.974;10.322;2022-12-07T11:01:22;9.98;;;2.90;;
72720;SDS011;60835;50.974;10.322;2022-12-07T11:06:53;7.65;;;2.80;;
72720;SDS011;60835;50.974;10.322;2022-12-07T11:12:26;9.77;;;4.00;;
72720;SDS011;60835;50.974;10.322;2022-12-07T11:17:45;4.88;;;2.00;;
72720;SDS011;60835;50.974;10.322;2022-12-07T11:26:24;5.60;;;2.35;;
72720;SDS011;60835;50.974;10.322;2022-12-07T11:34:39;8.60;;;2.30;;
72720;SDS011;60835;50.974;10.322;2022-12-07T11:37:18;5.57;;;2.25;;
72720;SDS011;60835;50.974;10.322;2022-12-07T11:39:51;4.30;;;2.10;;
72720;SDS011;60835;50.974;10.322;2022-12-07T11:42:21;6.22;;;2.63;;
72720;SDS011;60835;50.974;10.322;2022-12-07T11:44:52;5.90;;;2.30;;
72720;SDS011;60835;50.974;10.322;2022-12-07T11:47:25;9.30;;;2.50;;
72720;SDS011;60835;50.974;10.322;2022-12-07T11:55:57;5.93;;;2.55;;
72720;SDS011;60835;50.974;10.322;2022-12-07T12:04:00;9.88;;;4.05;;
72720;SDS011;60835;50.974;10.322;2022-12-07T12:06:33;7.95;;;2.85;;
72720;SDS011;60835;50.974;10.322;2022-12-07T12:09:20;6.72;;;2.53;;
72720;SDS011;60835;50.974;10.322;2022-12-07T12:12:17;4.28;;;1.88;;
72720;SDS011;60835;50.974;10.322;2022-12-07T12:15:16;4.22;;;2.30;;
72720;SDS011;60835;50.974;10.322;2022-12-07T12:17:56;3.10;;;1.90;;
72720;SDS011;60835;50.974;10.322;2022-12-07T12:29:04;7.53;;;2.55;;
72720;SDS011;60835;50.974;10.322;2022-12-07T12:38:26;3.42;;;1.55;;
72720;SDS011;60835;50.974;10.322;2022-12-07T12:41:00;7.93;;;2.20;;
72720;SDS011;60835;50.974;10.322;2022-12-07T12:43:41;4.90;;;1.77;;
72720;SDS011;60835;50.974;10.322;2022-12-07T13:00:17;4.90;;;1.80;;
72720;SDS011;60835;50.974;10.322;2022-12-07T13:02:49;7.10;;;1.77;;
72720;SDS011;60835;50.974;10.322;2022-12-07T13:05:35;8.27;;;3.35;;
72720;SDS011;60835;50.974;10.322;2022-12-07T13:08:04;6.88;;;2.10;;
72720;SDS011;60835;50.974;10.322;2022-12-07T13:10:44;14.30;;;3.42;;
72720;SDS011;60835;50.974;10.322;2022-12-07T13:15:42;5.22;;;2.20;;
72720;SDS011;60835;50.974;10.322;2022-12-07T13:21:02;5.32;;;1.98;;
72720;SDS011;60835;50.974;10.322;2022-12-07T13:29:11;4.10;;;1.83;;
72720;SDS011;60835;50.974;10.322;2022-12-07T13:31:45;3.60;;;1.67;;
72720;SDS011;60835;50.974;10.322;2022-12-07T13:36:54;7.97;;;3.15;;
72720;SDS011;60835;50.974;10.322;2022-12-07T13:39:22;6.15;;;3.35;;
72720;SDS011;60835;50.974;10.322;2022-12-07T13:41:51;7.18;;;2.83;;
72720;SDS011;60835;50.974;10.322;2022-12-07T13:44:23;7.22;;;2.40;;
72720;SDS011;60835;50.974;10.322;2022-12-07T13:49:29;5.22;;;2.15;;
72720;SDS011;60835;50.974;10.322;2022-12-07T13:57:33;7.57;;;3.55;;
72720;SDS011;60835;50.974;10.322;2022-12-07T14:00:13;5.35;;;2.55;;
72720;SDS011;60835;50.974;10.322;2022-12-07T14:05:31;3.60;;;1.73;;
72720;SDS011;60835;50.974;10.322;2022-12-07T14:08:00;8.98;;;2.33;;
72720;SDS011;60835;50.974;10.322;2022-12-07T14:10:30;10.82;;;2.88;;
72720;SDS011;60835;50.974;10.322;2022-12-07T14:12:59;5.70;;;1.75;;
72720;SDS011;60835;50.974;10.322;2022-12-07T14:15:31;3.90;;;1.60;;
72720;SDS011;60835;50.974;10.322;2022-12-07T14:18:00;4.22;;;1.35;;
72720;SDS011;60835;50.974;10.322;2022-12-07T14:20:37;3.30;;;1.83;;
72720;SDS011;60835;50.974;10.322;2022-12-07T14:23:06;2.97;;;1.40;;
72720;SDS011;60835;50.974;10.322;2022-12-07T14:25:52;3.03;;;1.30;;
72720;SDS011;60835;50.974;10.322;2022-12-07T14:30:56;7.20;;;1.58;;
72720;SDS011;60835;50.974;10.322;2022-12-07T14:33:23;7.88;;;1.92;;
72720;SDS011;60835;50.974;10.322;2022-12-07T14:35:51;5.07;;;1.85;;
72720;SDS011;60835;50.974;10.322;2022-12-07T14:38:21;5.80;;;2.15;;
72720;SDS011;60835;50.974;10.322;2022-12-07T14:40:48;4.35;;;1.90;;
72720;SDS011;60835;50.974;10.322;2022-12-07T14:43:16;13.27;;;3.10;;
72720;SDS011;60835;50.974;10.322;2022-12-07T14:45:43;5.40;;;2.05;;
72720;SDS011;60835;50.974;10.322;2022-12-07T14:48:10;7.00;;;2.53;;
72720;SDS011;60835;50.974;10.322;2022-12-07T14:50:58;7.75;;;2.60;;
72720;SDS011;60835;50.974;10.322;2022-12-07T14:53:46;7.35;;;2.20;;
72720;SDS011;60835;50.974;10.322;2022-12-07T14:56:22;4.95;;;2.08;;
72720;SDS011;60835;50.974;10.322;2022-12-07T14:58:48;4.65;;;2.20;;
72720;SDS011;60835;50.974;10.322;2022-12-07T15:01:15;5.05;;;1.83;;
72720;SDS011;60835;50.974;10.322;2022-12-07T15:03:42;4.00;;;1.80;;
72720;SDS011;60835;50.974;10.322;2022-12-07T15:06:10;7.35;;;2.83;;
72720;SDS011;60835;50.974;10.322;2022-12-07T15:08:40;7.40;;;4.20;;
72720;SDS011;60835;50.974;10.322;2022-12-07T15:11:09;12.05;;;4.72;;
72720;SDS011;60835;50.974;10.322;2022-12-07T15:13:39;6.88;;;3.17;;
72720;SDS011;60835;50.974;10.322;2022-12-07T15:16:24;6.35;;;3.05;;
72720;SDS011;60835;50.974;10.322;2022-12-07T15:18:51;7.03;;;2.60;;
72720;SDS011;60835;50.974;10.322;2022-12-07T15:21:37;5.65;;;2.20;;
72720;SDS011;60835;50.974;10.322;2022-12-07T15:24:04;10.32;;;5.22;;
72720;SDS011;60835;50.974;10.322;2022-12-07T15:26:30;7.57;;;3.10;;
72720;SDS011;60835;50.974;10.322;2022-12-07T15:28:57;10.10;;;4.47;;
72720;SDS011;60835;50.974;10.322;2022-12-07T15:31:24;10.77;;;3.28;;
72720;SDS011;60835;50.974;10.322;2022-12-07T15:34:10;6.10;;;2.20;;
72720;SDS011;60835;50.974;10.322;2022-12-07T15:36:37;8.55;;;3.70;;
72720;SDS011;60835;50.974;10.322;2022-12-07T15:39:03;13.90;;;4.63;;
72720;SDS011;60835;50.974;10.322;2022-12-07T15:41:39;6.25;;;2.45;;
72720;SDS011;60835;50.974;10.322;2022-12-07T15:44:06;11.65;;;3.83;;
72720;SDS011;60835;50.974;10.322;2022-12-07T15:46:56;8.20;;;3.35;;
72720;SDS011;60835;50.974;10.322;2022-12-07T15:49:23;7.90;;;3.70;;
72720;SDS011;60835;50.974;10.322;2022-12-07T15:51:49;6.47;;;2.85;;
72720;SDS011;60835;50.974;10.322;2022-12-07T15:54:18;6.20;;;2.90;;
72720;SDS011;60835;50.974;10.322;2022-12-07T15:56:49;17.02;;;6.68;;
72720;SDS011;60835;50.974;10.322;2022-12-07T15:59:16;16.33;;;7.22;;
72720;SDS011;60835;50.974;10.322;2022-12-07T16:01:43;15.82;;;7.65;;
72720;SDS011;60835;50.974;10.322;2022-12-07T16:04:10;9.13;;;3.75;;
72720;SDS011;60835;50.974;10.322;2022-12-07T16:06:37;10.70;;;5.32;;
72720;SDS011;60835;50.974;10.322;2022-12-07T16:09:04;24.08;;;10.43;;
72720;SDS011;60835;50.974;10.322;2022-12-07T16:11:31;19.48;;;8.55;;
72720;SDS011;60835;50.974;10.322;2022-12-07T16:13:58;18.10;;;6.82;;
72720;SDS011;60835;50.974;10.322;2022-12-07T16:16:25;14.00;;;6.75;;
72720;SDS011;60835;50.974;10.322;2022-12-07T16:18:52;21.90;;;9.70;;
72720;SDS011;60835;50.974;10.322;2022-12-07T16:21:19;19.67;;;10.05;;
72720;SDS011;60835;50.974;10.322;2022-12-07T16:23:50;16.13;;;7.90;;
72720;SDS011;60835;50.974;10.322;2022-12-07T16:26:18;8.63;;;3.47;;
72720;SDS011;60835;50.974;10.322;2022-12-07T16:28:50;6.80;;;3.00;;
72720;SDS011;60835;50.974;10.322;2022-12-07T16:31:18;9.48;;;3.33;;
72720;SDS011;60835;50.974;10.322;2022-12-07T16:33:47;11.13;;;4.35;;
72720;SDS011;60835;50.974;10.322;2022-12-07T16:36:15;10.65;;;4.25;;
72720;SDS011;60835;50.974;10.322;2022-12-07T16:39:02;9.27;;;3.42;;
72720;SDS011;60835;50.974;10.322;2022-12-07T16:41:30;6.22;;;3.25;;
72720;SDS011;60835;50.974;10.322;2022-12-07T16:43:56;10.30;;;4.03;;
72720;SDS011;60835;50.974;10.322;2022-12-07T16:46:23;8.38;;;4.22;;
72720;SDS011;60835;50.974;10.322;2022-12-07T16:48:50;12.70;;;3.72;;
72720;SDS011;60835;50.974;10.322;2022-12-07T16:51:16;13.93;;;4.10;;
72720;SDS011;60835;50.974;10.322;2022-12-07T16:53:43;7.25;;;3.75;;
72720;SDS011;60835;50.974;10.322;2022-12-07T16:56:11;6.93;;;2.60;;